sensor_id;sensor_type;location;lat;lon;timestamp;P1;durP1;ratioP1;P2;durP2;ratioP2
76701;SDS011;65630;44.498;0.166;2023-05-07T00:01:36;9.00;;;2.37;;
76701;SDS011;65630;44.498;0.166;2023-05-07T00:07:09;13.60;;;3.00;;
76701;SDS011;65630;44.498;0.166;2023-05-07T00:12:43;7.33;;;1.83;;
76701;SDS011;65630;44.498;0.166;2023-05-07T00:18:14;27.50;;;5.00;;
76701;SDS011;65630;44.498;0.166;2023-05-07T00:23:47;13.87;;;3.33;;
76701;SDS011;65630;44.498;0.166;2023-05-07T00:29:20;14.90;;;2.53;;
76701;SDS011;65630;44.498;0.166;2023-05-07T00:34:53;16.30;;;2.60;;
76701;SDS011;65630;44.498;0.166;2023-05-07T00:40:26;25.10;;;4.80;;
76701;SDS011;65630;44.498;0.166;2023-05-07T00:57:04;14.67;;;4.27;;
76701;SDS011;65630;44.498;0.166;2023-05-07T01:02:38;12.67;;;3.40;;
76701;SDS011;65630;44.498;0.166;2023-05-07T01:08:10;13.70;;;2.83;;
76701;SDS011;65630;44.498;0.166;2023-05-07T01:13:42;10.73;;;2.27;;
76701;SDS011;65630;44.498;0.166;2023-05-07T01:19:15;13.70;;;2.67;;
76701;SDS011;65630;44.498;0.166;2023-05-07T01:24:47;10.67;;;2.83;;
76701;SDS011;65630;44.498;0.166;2023-05-07T01:30:20;15.70;;;3.23;;
76701;SDS011;65630;44.498;0.166;2023-05-07T01:35:52;12.80;;;3.47;;
76701;SDS011;65630;44.498;0.166;2023-05-07T01:41:25;12.27;;;3.10;;
76701;SDS011;65630;44.498;0.166;2023-05-07T02:09:10;18.23;;;3.40;;
76701;SDS011;65630;44.498;0.166;2023-05-07T02:14:42;12.23;;;4.03;;
76701;SDS011;65630;44.498;0.166;2023-05-07T02:20:15;16.20;;;3.03;;
76701;SDS011;65630;44.498;0.166;2023-05-07T02:25:48;16.83;;;4.27;;
76701;SDS011;65630;44.498;0.166;2023-05-07T02:31:22;17.07;;;3.50;;
76701;SDS011;65630;44.498;0.166;2023-05-07T02:36:55;19.80;;;3.80;;
76701;SDS011;65630;44.498;0.166;2023-05-07T02:42:27;17.40;;;4.43;;
76701;SDS011;65630;44.498;0.166;2023-05-07T02:48:00;18.47;;;5.17;;
76701;SDS011;65630;44.498;0.166;2023-05-07T02:53:33;19.07;;;3.40;;
76701;SDS011;65630;44.498;0.166;2023-05-07T02:59:06;17.67;;;4.00;;
76701;SDS011;65630;44.498;0.166;2023-05-07T03:04:39;17.77;;;4.83;;
76701;SDS011;65630;44.498;0.166;2023-05-07T03:10:12;18.10;;;4.30;;
76701;SDS011;65630;44.498;0.166;2023-05-07T03:15:46;17.80;;;3.67;;
76701;SDS011;65630;44.498;0.166;2023-05-07T03:21:19;12.90;;;3.80;;
76701;SDS011;65630;44.498;0.166;2023-05-07T03:26:52;20.47;;;4.03;;
76701;SDS011;65630;44.498;0.166;2023-05-07T03:32:25;11.37;;;3.57;;
76701;SDS011;65630;44.498;0.166;2023-05-07T03:37:57;15.23;;;3.67;;
76701;SDS011;65630;44.498;0.166;2023-05-07T03:43:29;13.27;;;3.10;;
76701;SDS011;65630;44.498;0.166;2023-05-07T03:49:03;17.67;;;3.57;;
76701;SDS011;65630;44.498;0.166;2023-05-07T03:54:36;18.97;;;4.33;;
76701;SDS011;65630;44.498;0.166;2023-05-07T04:00:08;9.80;;;3.70;;
76701;SDS011;65630;44.498;0.166;2023-05-07T04:05:41;15.37;;;3.93;;
76701;SDS011;65630;44.498;0.166;2023-05-07T04:11:15;17.67;;;3.37;;
76701;SDS011;65630;44.498;0.166;2023-05-07T04:16:47;18.90;;;3.43;;
76701;SDS011;65630;44.498;0.166;2023-05-07T04:22:21;12.80;;;3.70;;
76701;SDS011;65630;44.498;0.166;2023-05-07T04:27:53;15.03;;;5.20;;
76701;SDS011;65630;44.498;0.166;2023-05-07T04:33:26;19.93;;;4.63;;
76701;SDS011;65630;44.498;0.166;2023-05-07T04:38:59;18.27;;;4.03;;
76701;SDS011;65630;44.498;0.166;2023-05-07T04:44:31;21.67;;;4.60;;
76701;SDS011;65630;44.498;0.166;2023-05-07T04:50:05;11.80;;;3.40;;
76701;SDS011;65630;44.498;0.166;2023-05-07T04:55:38;13.43;;;3.73;;
76701;SDS011;65630;44.498;0.166;2023-05-07T05:01:11;14.33;;;3.20;;
76701;SDS011;65630;44.498;0.166;2023-05-07T05:06:43;15.73;;;3.17;;
76701;SDS011;65630;44.498;0.166;2023-05-07T05:12:15;16.60;;;4.23;;
76701;SDS011;65630;44.498;0.166;2023-05-07T05:17:49;16.73;;;5.63;;
76701;SDS011;65630;44.498;0.166;2023-05-07T05:23:22;20.40;;;5.13;;
76701;SDS011;65630;44.498;0.166;2023-05-07T05:28:54;23.10;;;4.67;;
76701;SDS011;65630;44.498;0.166;2023-05-07T05:34:27;17.87;;;4.27;;
76701;SDS011;65630;44.498;0.166;2023-05-07T05:39:59;21.13;;;4.63;;
76701;SDS011;65630;44.498;0.166;2023-05-07T05:45:33;23.00;;;5.37;;
76701;SDS011;65630;44.498;0.166;2023-05-07T05:51:06;17.80;;;3.60;;
76701;SDS011;65630;44.498;0.166;2023-05-07T05:56:39;14.67;;;4.77;;
76701;SDS011;65630;44.498;0.166;2023-05-07T06:02:11;15.77;;;4.10;;
76701;SDS011;65630;44.498;0.166;2023-05-07T06:07:44;15.57;;;4.30;;
76701;SDS011;65630;44.498;0.166;2023-05-07T06:13:17;13.10;;;3.43;;
76701;SDS011;65630;44.498;0.166;2023-05-07T06:18:49;19.70;;;5.67;;
76701;SDS011;65630;44.498;0.166;2023-05-07T06:24:22;18.47;;;3.47;;
76701;SDS011;65630;44.498;0.166;2023-05-07T06:29:55;19.07;;;4.27;;
76701;SDS011;65630;44.498;0.166;2023-05-07T06:35:29;15.57;;;3.77;;
76701;SDS011;65630;44.498;0.166;2023-05-07T06:41:03;16.33;;;4.10;;
76701;SDS011;65630;44.498;0.166;2023-05-07T06:46:35;17.70;;;3.87;;
76701;SDS011;65630;44.498;0.166;2023-05-07T06:52:07;12.67;;;3.80;;
76701;SDS011;65630;44.498;0.166;2023-05-07T06:57:40;17.07;;;5.07;;
76701;SDS011;65630;44.498;0.166;2023-05-07T07:03:13;20.63;;;3.67;;
76701;SDS011;65630;44.498;0.166;2023-05-07T07:08:47;15.93;;;3.70;;
76701;SDS011;65630;44.498;0.166;2023-05-07T07:14:19;18.60;;;4.00;;
76701;SDS011;65630;44.498;0.166;2023-05-07T07:19:52;15.03;;;3.50;;
76701;SDS011;65630;44.498;0.166;2023-05-07T07:25:25;23.23;;;5.10;;
76701;SDS011;65630;44.498;0.166;2023-05-07T07:30:58;17.20;;;5.57;;
76701;SDS011;65630;44.498;0.166;2023-05-07T07:36:30;27.50;;;5.30;;
76701;SDS011;65630;44.498;0.166;2023-05-07T07:42:03;21.43;;;4.43;;
76701;SDS011;65630;44.498;0.166;2023-05-07T07:47:36;14.83;;;3.63;;
76701;SDS011;65630;44.498;0.166;2023-05-07T07:53:09;11.80;;;3.40;;
76701;SDS011;65630;44.498;0.166;2023-05-07T07:58:41;14.87;;;4.33;;
76701;SDS011;65630;44.498;0.166;2023-05-07T08:04:13;14.97;;;3.00;;
76701;SDS011;65630;44.498;0.166;2023-05-07T08:09:46;17.77;;;4.23;;
76701;SDS011;65630;44.498;0.166;2023-05-07T08:15:18;10.30;;;3.47;;
76701;SDS011;65630;44.498;0.166;2023-05-07T08:20:50;13.87;;;2.63;;
76701;SDS011;65630;44.498;0.166;2023-05-07T08:26:23;8.23;;;2.87;;
76701;SDS011;65630;44.498;0.166;2023-05-07T08:31:57;10.77;;;2.77;;
76701;SDS011;65630;44.498;0.166;2023-05-07T08:37:29;14.10;;;2.93;;
76701;SDS011;65630;44.498;0.166;2023-05-07T08:43:03;9.03;;;2.20;;
76701;SDS011;65630;44.498;0.166;2023-05-07T08:48:36;8.47;;;2.50;;
76701;SDS011;65630;44.498;0.166;2023-05-07T08:54:08;12.77;;;2.70;;
76701;SDS011;65630;44.498;0.166;2023-05-07T08:59:41;12.53;;;2.23;;
76701;SDS011;65630;44.498;0.166;2023-05-07T09:05:14;13.43;;;3.10;;
76701;SDS011;65630;44.498;0.166;2023-05-07T09:10:47;8.60;;;2.23;;
76701;SDS011;65630;44.498;0.166;2023-05-07T09:16:20;15.30;;;3.73;;
76701;SDS011;65630;44.498;0.166;2023-05-07T09:21:57;15.77;;;3.57;;
76701;SDS011;65630;44.498;0.166;2023-05-07T09:27:25;10.10;;;2.67;;
76701;SDS011;65630;44.498;0.166;2023-05-07T09:32:58;12.07;;;2.50;;
76701;SDS011;65630;44.498;0.166;2023-05-07T09:38:30;9.87;;;2.33;;
76701;SDS011;65630;44.498;0.166;2023-05-07T09:44:03;11.47;;;3.40;;
76701;SDS011;65630;44.498;0.166;2023-05-07T09:49:38;11.73;;;2.90;;
76701;SDS011;65630;44.498;0.166;2023-05-07T09:55:08;11.80;;;3.20;;
76701;SDS011;65630;44.498;0.166;2023-05-07T10:00:41;7.80;;;1.50;;
76701;SDS011;65630;44.498;0.166;2023-05-07T10:06:14;9.73;;;2.07;;
76701;SDS011;65630;44.498;0.166;2023-05-07T10:11:47;9.77;;;2.00;;
76701;SDS011;65630;44.498;0.166;2023-05-07T10:17:20;10.43;;;2.20;;
76701;SDS011;65630;44.498;0.166;2023-05-07T10:22:54;11.97;;;2.77;;
76701;SDS011;65630;44.498;0.166;2023-05-07T10:28:29;11.90;;;2.20;;
76701;SDS011;65630;44.498;0.166;2023-05-07T10:34:01;10.07;;;2.20;;
76701;SDS011;65630;44.498;0.166;2023-05-07T10:39:34;8.17;;;2.37;;
76701;SDS011;65630;44.498;0.166;2023-05-07T10:45:13;9.77;;;2.00;;
76701;SDS011;65630;44.498;0.166;2023-05-07T10:50:40;9.03;;;2.10;;
76701;SDS011;65630;44.498;0.166;2023-05-07T10:56:24;6.97;;;1.50;;
76701;SDS011;65630;44.498;0.166;2023-05-07T11:01:50;8.47;;;2.30;;
76701;SDS011;65630;44.498;0.166;2023-05-07T11:07:26;7.57;;;1.57;;
76701;SDS011;65630;44.498;0.166;2023-05-07T11:12:51;5.43;;;1.40;;
76701;SDS011;65630;44.498;0.166;2023-05-07T11:18:23;9.03;;;2.00;;
76701;SDS011;65630;44.498;0.166;2023-05-07T11:23:57;7.23;;;1.70;;
76701;SDS011;65630;44.498;0.166;2023-05-07T11:29:28;4.97;;;1.50;;
76701;SDS011;65630;44.498;0.166;2023-05-07T11:35:01;7.17;;;1.27;;
76701;SDS011;65630;44.498;0.166;2023-05-07T11:40:33;6.83;;;1.90;;
76701;SDS011;65630;44.498;0.166;2023-05-07T11:46:06;23.37;;;3.40;;
76701;SDS011;65630;44.498;0.166;2023-05-07T11:51:37;7.80;;;1.63;;
76701;SDS011;65630;44.498;0.166;2023-05-07T11:57:14;10.27;;;2.57;;
76701;SDS011;65630;44.498;0.166;2023-05-07T12:02:43;6.70;;;1.50;;
76701;SDS011;65630;44.498;0.166;2023-05-07T12:08:14;6.43;;;1.90;;
76701;SDS011;65630;44.498;0.166;2023-05-07T12:13:46;8.10;;;1.40;;
76701;SDS011;65630;44.498;0.166;2023-05-07T12:19:18;5.40;;;1.60;;
76701;SDS011;65630;44.498;0.166;2023-05-07T12:24:56;9.47;;;1.63;;
76701;SDS011;65630;44.498;0.166;2023-05-07T12:30:23;9.10;;;2.17;;
76701;SDS011;65630;44.498;0.166;2023-05-07T12:35:56;6.50;;;1.73;;
76701;SDS011;65630;44.498;0.166;2023-05-07T12:41:29;5.03;;;1.13;;
76701;SDS011;65630;44.498;0.166;2023-05-07T12:47:01;6.63;;;1.70;;
76701;SDS011;65630;44.498;0.166;2023-05-07T12:52:35;6.40;;;1.60;;
76701;SDS011;65630;44.498;0.166;2023-05-07T12:58:14;6.07;;;2.57;;
76701;SDS011;65630;44.498;0.166;2023-05-07T13:03:40;12.47;;;3.40;;
76701;SDS011;65630;44.498;0.166;2023-05-07T13:09:14;7.23;;;1.43;;
76701;SDS011;65630;44.498;0.166;2023-05-07T13:14:47;10.57;;;1.87;;
76701;SDS011;65630;44.498;0.166;2023-05-07T13:20:20;11.20;;;2.20;;
76701;SDS011;65630;44.498;0.166;2023-05-07T13:25:52;6.33;;;1.07;;
76701;SDS011;65630;44.498;0.166;2023-05-07T13:31:26;5.93;;;1.07;;
76701;SDS011;65630;44.498;0.166;2023-05-07T13:36:58;6.63;;;1.33;;
76701;SDS011;65630;44.498;0.166;2023-05-07T13:42:31;7.80;;;1.60;;
76701;SDS011;65630;44.498;0.166;2023-05-07T13:48:03;12.67;;;2.60;;
76701;SDS011;65630;44.498;0.166;2023-05-07T13:53:36;8.93;;;1.63;;
76701;SDS011;65630;44.498;0.166;2023-05-07T13:59:08;6.97;;;1.90;;
76701;SDS011;65630;44.498;0.166;2023-05-07T14:04:41;7.80;;;1.23;;
76701;SDS011;65630;44.498;0.166;2023-05-07T14:10:14;10.43;;;1.83;;
76701;SDS011;65630;44.498;0.166;2023-05-07T14:15:47;9.17;;;1.77;;
76701;SDS011;65630;44.498;0.166;2023-05-07T14:21:19;8.60;;;1.33;;
76701;SDS011;65630;44.498;0.166;2023-05-07T14:26:53;9.23;;;2.53;;
76701;SDS011;65630;44.498;0.166;2023-05-07T14:32:25;6.97;;;1.63;;
76701;SDS011;65630;44.498;0.166;2023-05-07T14:37:58;4.33;;;1.13;;
76701;SDS011;65630;44.498;0.166;2023-05-07T14:43:30;6.07;;;1.40;;
76701;SDS011;65630;44.498;0.166;2023-05-07T14:49:03;5.97;;;1.17;;
76701;SDS011;65630;44.498;0.166;2023-05-07T14:54:36;7.97;;;1.53;;
76701;SDS011;65630;44.498;0.166;2023-05-07T15:00:09;29.87;;;2.00;;
76701;SDS011;65630;44.498;0.166;2023-05-07T15:05:42;22.93;;;7.63;;
76701;SDS011;65630;44.498;0.166;2023-05-07T15:11:13;17.50;;;1.87;;
76701;SDS011;65630;44.498;0.166;2023-05-07T15:16:45;11.63;;;2.83;;
76701;SDS011;65630;44.498;0.166;2023-05-07T15:22:18;4.93;;;2.00;;
76701;SDS011;65630;44.498;0.166;2023-05-07T15:27:50;8.00;;;1.60;;
76701;SDS011;65630;44.498;0.166;2023-05-07T15:33:23;10.27;;;2.13;;
76701;SDS011;65630;44.498;0.166;2023-05-07T15:38:57;10.53;;;2.47;;
76701;SDS011;65630;44.498;0.166;2023-05-07T15:44:30;12.30;;;2.33;;
76701;SDS011;65630;44.498;0.166;2023-05-07T15:50:02;7.17;;;1.80;;
76701;SDS011;65630;44.498;0.166;2023-05-07T15:55:33;10.70;;;2.20;;
76701;SDS011;65630;44.498;0.166;2023-05-07T16:01:05;11.47;;;2.60;;
76701;SDS011;65630;44.498;0.166;2023-05-07T16:06:38;13.20;;;1.80;;
76701;SDS011;65630;44.498;0.166;2023-05-07T16:12:13;6.00;;;1.30;;
76701;SDS011;65630;44.498;0.166;2023-05-07T16:17:46;7.70;;;1.83;;
76701;SDS011;65630;44.498;0.166;2023-05-07T16:23:18;9.37;;;1.87;;
76701;SDS011;65630;44.498;0.166;2023-05-07T16:28:51;9.00;;;1.93;;
76701;SDS011;65630;44.498;0.166;2023-05-07T16:34:24;9.30;;;1.83;;
76701;SDS011;65630;44.498;0.166;2023-05-07T16:39:56;8.87;;;1.63;;
76701;SDS011;65630;44.498;0.166;2023-05-07T16:45:29;8.67;;;1.70;;
76701;SDS011;65630;44.498;0.166;2023-05-07T16:51:02;9.10;;;1.87;;
76701;SDS011;65630;44.498;0.166;2023-05-07T16:56:34;14.10;;;2.90;;
76701;SDS011;65630;44.498;0.166;2023-05-07T17:02:08;12.17;;;2.43;;
76701;SDS011;65630;44.498;0.166;2023-05-07T17:07:41;13.87;;;3.07;;
76701;SDS011;65630;44.498;0.166;2023-05-07T17:13:13;9.13;;;1.80;;
76701;SDS011;65630;44.498;0.166;2023-05-07T17:18:46;12.43;;;1.77;;
76701;SDS011;65630;44.498;0.166;2023-05-07T17:24:20;9.53;;;2.23;;
76701;SDS011;65630;44.498;0.166;2023-05-07T17:29:52;11.87;;;2.10;;
76701;SDS011;65630;44.498;0.166;2023-05-07T17:35:25;10.60;;;1.87;;
76701;SDS011;65630;44.498;0.166;2023-05-07T17:40:58;10.53;;;3.63;;
76701;SDS011;65630;44.498;0.166;2023-05-07T17:46:30;11.67;;;1.90;;
76701;SDS011;65630;44.498;0.166;2023-05-07T17:52:04;10.97;;;2.23;;
76701;SDS011;65630;44.498;0.166;2023-05-07T17:57:37;6.77;;;1.40;;
76701;SDS011;65630;44.498;0.166;2023-05-07T18:03:11;14.77;;;2.70;;
76701;SDS011;65630;44.498;0.166;2023-05-07T18:08:44;9.03;;;1.53;;
76701;SDS011;65630;44.498;0.166;2023-05-07T18:14:16;13.47;;;2.47;;
76701;SDS011;65630;44.498;0.166;2023-05-07T18:19:49;9.30;;;2.03;;
76701;SDS011;65630;44.498;0.166;2023-05-07T18:25:23;9.17;;;1.77;;
76701;SDS011;65630;44.498;0.166;2023-05-07T18:30:55;14.43;;;2.43;;
76701;SDS011;65630;44.498;0.166;2023-05-07T18:36:28;10.97;;;2.97;;
76701;SDS011;65630;44.498;0.166;2023-05-07T18:42:01;11.23;;;2.97;;
76701;SDS011;65630;44.498;0.166;2023-05-07T18:47:33;21.17;;;5.27;;
76701;SDS011;65630;44.498;0.166;2023-05-07T18:53:06;11.33;;;2.30;;
76701;SDS011;65630;44.498;0.166;2023-05-07T18:58:39;11.90;;;3.17;;
76701;SDS011;65630;44.498;0.166;2023-05-07T19:04:12;15.63;;;2.57;;
76701;SDS011;65630;44.498;0.166;2023-05-07T19:09:46;11.87;;;3.13;;
76701;SDS011;65630;44.498;0.166;2023-05-07T19:15:19;12.87;;;2.60;;
76701;SDS011;65630;44.498;0.166;2023-05-07T19:20:52;8.40;;;2.20;;
76701;SDS011;65630;44.498;0.166;2023-05-07T19:26:25;14.90;;;3.57;;
76701;SDS011;65630;44.498;0.166;2023-05-07T19:31:58;15.93;;;3.53;;
76701;SDS011;65630;44.498;0.166;2023-05-07T19:37:31;16.83;;;4.30;;
76701;SDS011;65630;44.498;0.166;2023-05-07T19:43:03;18.20;;;4.17;;
76701;SDS011;65630;44.498;0.166;2023-05-07T19:48:37;12.27;;;2.80;;
76701;SDS011;65630;44.498;0.166;2023-05-07T19:54:09;9.77;;;2.23;;
76701;SDS011;65630;44.498;0.166;2023-05-07T19:59:42;11.63;;;2.43;;
76701;SDS011;65630;44.498;0.166;2023-05-07T20:05:15;13.53;;;2.63;;
76701;SDS011;65630;44.498;0.166;2023-05-07T20:10:48;13.43;;;2.37;;
76701;SDS011;65630;44.498;0.166;2023-05-07T20:16:20;10.60;;;2.73;;
76701;SDS011;65630;44.498;0.166;2023-05-07T20:21:52;10.17;;;1.73;;
76701;SDS011;65630;44.498;0.166;2023-05-07T20:27:25;6.53;;;1.40;;
76701;SDS011;65630;44.498;0.166;2023-05-07T20:32:59;11.63;;;2.97;;
76701;SDS011;65630;44.498;0.166;2023-05-07T20:38:30;12.27;;;2.20;;
76701;SDS011;65630;44.498;0.166;2023-05-07T20:44:04;16.60;;;3.30;;
76701;SDS011;65630;44.498;0.166;2023-05-07T20:49:35;7.20;;;1.33;;
76701;SDS011;65630;44.498;0.166;2023-05-07T20:55:08;7.07;;;1.40;;
76701;SDS011;65630;44.498;0.166;2023-05-07T21:00:39;10.90;;;1.50;;
76701;SDS011;65630;44.498;0.166;2023-05-07T21:06:12;14.27;;;3.73;;
76701;SDS011;65630;44.498;0.166;2023-05-07T21:11:45;10.40;;;2.70;;
76701;SDS011;65630;44.498;0.166;2023-05-07T21:17:18;12.83;;;2.00;;
76701;SDS011;65630;44.498;0.166;2023-05-07T21:22:51;11.37;;;2.23;;
76701;SDS011;65630;44.498;0.166;2023-05-07T21:28:23;8.13;;;1.90;;
76701;SDS011;65630;44.498;0.166;2023-05-07T21:33:55;8.87;;;2.10;;
76701;SDS011;65630;44.498;0.166;2023-05-07T21:39:29;5.73;;;1.53;;
76701;SDS011;65630;44.498;0.166;2023-05-07T21:45:03;9.73;;;2.80;;
76701;SDS011;65630;44.498;0.166;2023-05-07T21:50:35;9.60;;;1.87;;
76701;SDS011;65630;44.498;0.166;2023-05-07T21:56:08;6.73;;;1.90;;
76701;SDS011;65630;44.498;0.166;2023-05-07T22:01:41;10.47;;;1.80;;
76701;SDS011;65630;44.498;0.166;2023-05-07T22:07:13;15.50;;;3.03;;
76701;SDS011;65630;44.498;0.166;2023-05-07T22:12:45;9.80;;;2.13;;
76701;SDS011;65630;44.498;0.166;2023-05-07T22:18:18;14.27;;;1.90;;
76701;SDS011;65630;44.498;0.166;2023-05-07T22:23:51;16.40;;;2.77;;
76701;SDS011;65630;44.498;0.166;2023-05-07T22:29:24;10.77;;;1.80;;
76701;SDS011;65630;44.498;0.166;2023-05-07T22:34:58;13.50;;;2.93;;
76701;SDS011;65630;44.498;0.166;2023-05-07T22:40:31;6.97;;;1.60;;
76701;SDS011;65630;44.498;0.166;2023-05-07T22:46:05;10.00;;;2.00;;
76701;SDS011;65630;44.498;0.166;2023-05-07T22:51:37;15.87;;;2.50;;
76701;SDS011;65630;44.498;0.166;2023-05-07T22:57:11;9.13;;;1.93;;
76701;SDS011;65630;44.498;0.166;2023-05-07T23:02:43;8.97;;;1.67;;
76701;SDS011;65630;44.498;0.166;2023-05-07T23:08:15;11.60;;;2.03;;
76701;SDS011;65630;44.498;0.166;2023-05-07T23:13:48;11.53;;;2.63;;
76701;SDS011;65630;44.498;0.166;2023-05-07T23:19:20;13.40;;;3.20;;
76701;SDS011;65630;44.498;0.166;2023-05-07T23:24:52;14.07;;;3.23;;
76701;SDS011;65630;44.498;0.166;2023-05-07T23:30:25;7.97;;;3.23;;
76701;SDS011;65630;44.498;0.166;2023-05-07T23:35:57;16.03;;;2.33;;
76701;SDS011;65630;44.498;0.166;2023-05-07T23:41:30;10.00;;;2.17;;
76701;SDS011;65630;44.498;0.166;2023-05-07T23:47:02;15.27;;;1.77;;
76701;SDS011;65630;44.498;0.166;2023-05-07T23:52:34;16.47;;;2.13;;
76701;SDS011;65630;44.498;0.166;2023-05-07T23:58:06;13.17;;;2.53;;
